Time;durP1;ratioP1;P1;durP2;ratioP2;P2;SDS_P1;SDS_P2;PMS_P1;PMS_P2;Temp;Humidity;BMP_temperature;BMP_pressure;BME280_temperature;BME280_humidity;BME280_pressure;Samples;Min_cycle;Max_cycle;Signal;HPM_P1;HPM_P2
2021/03/18 00:00:44;;;;;;;13.40;7.87;;;;;;;-0.43;66.42;100431.56;124493;1105;104313;-79
2021/03/18 00:03:17;;;;;;;15.53;8.67;;;;;;;-0.42;67.01;100429.02;124545;1106;104149;-79
2021/03/18 00:05:45;;;;;;;12.57;7.57;;;;;;;-0.44;66.74;100429.84;124553;1105;104290;-78
2021/03/18 00:08:14;;;;;;;15.17;8.00;;;;;;;-0.46;66.73;100423.84;124544;1105;102829;-79
2021/03/18 00:10:43;;;;;;;15.87;8.50;;;;;;;-0.48;66.71;100428.08;124567;1106;105239;-78
2021/03/18 00:13:11;;;;;;;14.50;8.37;;;;;;;-0.52;66.31;100423.75;124730;1105;104277;-80
2021/03/18 00:15:39;;;;;;;15.47;8.67;;;;;;;-0.55;66.79;100431.36;124600;1106;104220;-79
2021/03/18 00:18:08;;;;;;;18.03;9.27;;;;;;;-0.57;66.83;100433.05;124800;1105;104219;-78
2021/03/18 00:20:35;;;;;;;13.17;8.00;;;;;;;-0.61;67.46;100427.88;124916;1105;104115;-79
2021/03/18 00:23:04;;;;;;;13.50;7.90;;;;;;;-0.63;67.15;100434.68;125114;1105;104239;-80
2021/03/18 00:25:31;;;;;;;14.53;8.30;;;;;;;-0.66;67.49;100424.39;124758;1105;104118;-78
2021/03/18 00:27:59;;;;;;;13.33;7.97;;;;;;;-0.71;67.01;100431.15;124579;1106;104169;-79
2021/03/18 00:30:27;;;;;;;16.73;8.50;;;;;;;-0.77;67.46;100430.16;124587;1106;104117;-79
2021/03/18 00:32:55;;;;;;;15.87;9.00;;;;;;;-0.82;67.80;100435.22;124622;1105;104163;-79
2021/03/18 00:35:23;;;;;;;15.17;8.57;;;;;;;-0.85;67.65;100429.19;124623;1105;102349;-80
2021/03/18 00:37:52;;;;;;;16.47;8.50;;;;;;;-0.89;67.54;100424.86;124481;1105;104273;-79
2021/03/18 00:40:35;;;;;;;19.87;11.37;;;;;;;-0.93;68.21;100429.04;124655;1106;104192;-79
2021/03/18 00:43:09;;;;;;;16.63;9.20;;;;;;;-0.98;68.29;100417.87;124518;1108;104162;-79
2021/03/18 00:45:40;;;;;;;16.40;8.50;;;;;;;-1.03;67.60;100422.06;124573;1106;104178;-79
2021/03/18 00:48:08;;;;;;;15.87;8.50;;;;;;;-1.08;68.51;100421.09;124540;1105;104899;-79
2021/03/18 00:50:44;;;;;;;14.27;7.93;;;;;;;-1.11;68.69;100413.36;124652;1105;104155;-79
2021/03/18 00:53:21;;;;;;;14.07;7.83;;;;;;;-1.15;68.45;100417.58;124589;1105;104137;-79
2021/03/18 00:55:50;;;;;;;18.67;9.40;;;;;;;-1.18;68.65;100414.97;124573;1106;104153;-79
2021/03/18 00:58:18;;;;;;;14.90;7.67;;;;;;;-1.23;68.61;100420.01;124580;1109;104188;-79
2021/03/18 01:00:48;;;;;;;16.07;8.47;;;;;;;-1.25;68.44;100413.14;124546;1108;104230;-79
2021/03/18 01:03:16;;;;;;;16.70;8.17;;;;;;;-1.29;69.27;100409.64;124574;1106;102369;-79
2021/03/18 01:05:52;;;;;;;18.57;9.37;;;;;;;-1.33;68.55;100407.00;124538;1109;104104;-78
2021/03/18 01:08:24;;;;;;;13.17;7.83;;;;;;;-1.37;68.62;100405.23;124527;1109;104172;-79
2021/03/18 01:11:05;;;;;;;17.90;8.75;;;;;;;-1.40;69.15;100408.60;124498;1109;104306;-79
2021/03/18 01:13:33;;;;;;;14.27;8.63;;;;;;;-1.43;68.60;100405.12;124510;1106;104219;-79
2021/03/18 01:16:10;;;;;;;15.47;9.07;;;;;;;-1.48;69.31;100407.58;124633;1109;104233;-80
2021/03/18 01:18:43;;;;;;;14.47;8.13;;;;;;;-1.50;69.55;100404.13;124626;1105;104535;-79
2021/03/18 01:21:11;;;;;;;15.73;8.73;;;;;;;-1.53;69.68;100410.05;124564;1106;104108;-79
2021/03/18 01:23:39;;;;;;;15.57;9.27;;;;;;;-1.54;70.06;100410.89;124628;1105;104214;-79
2021/03/18 01:26:07;;;;;;;17.17;8.80;;;;;;;-1.56;69.64;100409.14;124510;1105;104293;-79
2021/03/18 01:28:36;;;;;;;16.47;8.97;;;;;;;-1.59;69.99;100404.84;124547;1109;104204;-80
2021/03/18 01:31:05;;;;;;;17.87;9.77;;;;;;;-1.60;69.64;100397.13;124728;1105;104197;-80
2021/03/18 01:33:33;;;;;;;16.50;8.73;;;;;;;-1.63;70.03;100403.02;124738;1105;106242;-79
2021/03/18 01:36:01;;;;;;;15.17;8.20;;;;;;;-1.66;70.63;100402.97;124588;1109;104220;-80
2021/03/18 01:38:30;;;;;;;15.97;8.53;;;;;;;-1.68;70.28;100398.66;124597;1106;104643;-80
2021/03/18 01:40:57;;;;;;;16.20;8.33;;;;;;;-1.69;70.36;100396.94;124683;1106;102817;-79
2021/03/18 01:43:26;;;;;;;15.83;8.70;;;;;;;-1.72;70.20;100402.00;124631;1109;104207;-79
2021/03/18 01:45:53;;;;;;;16.13;8.33;;;;;;;-1.74;71.29;100399.41;124661;1105;104351;-79
2021/03/18 01:48:22;;;;;;;18.53;9.43;;;;;;;-1.76;70.39;100408.75;124638;1105;104194;-80
2021/03/18 01:50:50;;;;;;;14.67;8.17;;;;;;;-1.78;71.30;100396.78;124623;1109;104146;-79
2021/03/18 01:53:20;;;;;;;14.83;7.97;;;;;;;-1.79;71.06;100403.59;124537;1109;104306;-80
2021/03/18 01:55:48;;;;;;;14.57;8.20;;;;;;;-1.80;70.82;100399.27;124585;1105;104220;-79
2021/03/18 01:58:17;;;;;;;18.03;8.13;;;;;;;-1.78;71.61;100404.45;124572;1105;104233;-80
2021/03/18 02:00:47;;;;;;;14.83;7.70;;;;;;;-1.80;70.92;100400.97;124792;1105;104194;-80
2021/03/18 02:03:15;;;;;;;19.10;8.77;;;;;;;-1.80;70.78;100398.41;124521;1108;104259;-79
2021/03/18 02:05:43;;;;;;;14.60;8.43;;;;;;;-1.79;71.51;100400.17;124545;1109;104043;-79
2021/03/18 02:08:10;;;;;;;16.67;8.80;;;;;;;-1.80;71.61;100403.52;124550;1105;104166;-79
2021/03/18 02:10:38;;;;;;;15.63;9.10;;;;;;;-1.81;71.30;100402.66;124553;1109;104261;-80
2021/03/18 02:13:08;;;;;;;15.50;8.60;;;;;;;-1.82;71.09;100400.94;124632;1106;104163;-79
2021/03/18 02:15:58;;;;;;;18.50;8.97;;;;;;;-1.83;71.98;100400.08;124514;1105;104191;-79
2021/03/18 02:18:40;;;;;;;16.47;8.53;;;;;;;-1.86;71.26;100400.02;124680;1105;104235;-80
2021/03/18 02:21:46;;;;;;;15.90;8.23;;;;;;;-1.89;71.50;100393.98;124521;1109;104204;-80
2021/03/18 02:24:33;;;;;;;16.83;8.40;;;;;;;-1.91;71.89;100391.41;124575;1105;104191;-79
2021/03/18 02:27:22;;;;;;;17.53;9.17;;;;;;;-1.92;72.10;100393.94;124649;1105;104196;-79
2021/03/18 02:30:11;;;;;;;16.40;8.53;;;;;;;-1.91;72.53;100393.96;124777;1105;104211;-79
2021/03/18 02:33:16;;;;;;;14.30;8.00;;;;;;;-1.93;72.54;100398.19;124719;1105;104319;-80
2021/03/18 02:36:04;;;;;;;12.70;7.77;;;;;;;-1.93;72.44;100387.95;124732;1105;104126;-79
2021/03/18 02:38:39;;;;;;;13.63;8.37;;;;;;;-1.95;72.07;100389.63;124590;1106;104166;-80
2021/03/18 02:41:13;;;;;;;14.10;8.50;;;;;;;-1.94;72.46;100390.48;124549;1106;104114;-80
2021/03/18 02:43:47;;;;;;;15.53;8.77;;;;;;;-1.96;72.53;100385.34;124573;1106;104220;-79
2021/03/18 02:46:14;;;;;;;14.57;8.40;;;;;;;-1.95;73.22;100384.52;124598;1109;104327;-80
2021/03/18 02:48:45;;;;;;;16.30;8.77;;;;;;;-1.92;72.86;100389.68;124754;1106;104544;-79
2021/03/18 02:51:17;;;;;;;19.00;9.50;;;;;;;-1.88;73.10;100386.34;124620;1105;104370;-79
2021/03/18 02:53:47;;;;;;;16.07;8.93;;;;;;;-1.86;72.86;100389.80;124558;1105;104163;-80
2021/03/18 02:56:17;;;;;;;14.63;8.70;;;;;;;-1.80;73.25;100388.19;124541;1109;104334;-80
2021/03/18 02:58:49;;;;;;;17.63;8.87;;;;;;;-1.80;73.05;100394.16;124544;1105;104043;-79
2021/03/18 03:01:19;;;;;;;15.17;8.30;;;;;;;-1.78;72.64;100394.22;124623;1106;104108;-80
2021/03/18 03:03:47;;;;;;;13.87;8.63;;;;;;;-1.77;73.13;100394.25;124640;1105;104197;-79
2021/03/18 03:06:18;;;;;;;17.07;8.53;;;;;;;-1.78;73.07;100399.33;124534;1105;104127;-77
2021/03/18 03:08:46;;;;;;;14.03;8.50;;;;;;;-1.78;73.12;100397.64;124526;1105;103098;-78
2021/03/18 03:11:17;;;;;;;15.77;9.67;;;;;;;-1.79;73.05;100400.17;124517;1106;104131;-79
2021/03/18 03:13:45;;;;;;;15.17;9.00;;;;;;;-1.79;73.64;100405.28;124533;1106;104047;-79
2021/03/18 03:16:18;;;;;;;14.83;8.53;;;;;;;-1.78;73.31;100407.00;124540;1105;104073;-79
2021/03/18 03:18:47;;;;;;;14.70;9.03;;;;;;;-1.78;73.31;100402.75;124559;1105;104255;-79
2021/03/18 03:21:18;;;;;;;17.03;9.47;;;;;;;-1.75;73.70;100401.95;124560;1109;104184;-80
2021/03/18 03:23:46;;;;;;;14.23;8.87;;;;;;;-1.73;73.77;100410.50;124553;1105;103308;-79
2021/03/18 03:26:17;;;;;;;13.83;8.73;;;;;;;-1.70;73.85;100401.19;124577;1105;104168;-80
2021/03/18 03:28:46;;;;;;;16.33;8.67;;;;;;;-1.63;73.92;100399.61;124624;1105;104605;-78
2021/03/18 03:31:14;;;;;;;13.47;7.93;;;;;;;-1.59;73.76;100404.84;124535;1109;104207;-79
2021/03/18 03:34:05;;;;;;;12.60;8.00;;;;;;;-1.52;74.30;100393.02;124586;1105;103067;-78
2021/03/18 03:36:35;;;;;;;16.07;8.93;;;;;;;-1.46;73.65;100393.12;124529;1109;104053;-79
2021/03/18 03:39:07;;;;;;;14.23;8.30;;;;;;;-1.41;74.16;100396.64;124548;1109;104169;-79
2021/03/18 03:41:34;;;;;;;13.13;8.10;;;;;;;-1.38;73.56;100394.14;124552;1105;104167;-79
2021/03/18 03:44:03;;;;;;;18.47;8.93;;;;;;;-1.31;73.54;100384.86;124577;1105;103613;-78
2021/03/18 03:46:30;;;;;;;13.27;7.93;;;;;;;-1.26;73.92;100391.81;124606;1105;104219;-79
2021/03/18 03:48:58;;;;;;;15.50;8.03;;;;;;;-1.22;73.97;100383.34;124504;1106;104278;-79
2021/03/18 03:51:31;;;;;;;14.03;8.20;;;;;;;-1.16;73.99;100386.84;124543;1109;105026;-80
2021/03/18 03:54:02;;;;;;;15.27;8.57;;;;;;;-1.14;73.39;100385.16;124549;1109;104210;-78
2021/03/18 03:56:40;;;;;;;17.10;8.55;;;;;;;-1.11;73.69;100387.77;124499;1105;104191;-79
2021/03/18 03:59:13;;;;;;;14.23;8.67;;;;;;;-1.09;73.77;100396.33;124534;1109;104339;-79
2021/03/18 04:01:45;;;;;;;12.60;8.20;;;;;;;-1.06;73.59;100392.16;124509;1106;104255;-79
2021/03/18 04:04:36;;;;;;;14.17;8.53;;;;;;;-1.04;73.85;100393.04;124544;1109;104306;-78
2021/03/18 04:07:08;;;;;;;13.80;8.53;;;;;;;-1.01;73.51;100398.20;124520;1106;104115;-78
2021/03/18 04:09:38;;;;;;;13.43;8.30;;;;;;;-0.98;73.23;100390.57;124577;1106;104217;-79
2021/03/18 04:12:07;;;;;;;15.73;9.03;;;;;;;-0.97;73.89;100394.85;124537;1106;104217;-79
2021/03/18 04:14:37;;;;;;;16.30;9.33;;;;;;;-0.95;74.06;100389.75;124554;1105;104313;-78
2021/03/18 04:17:08;;;;;;;17.30;9.57;;;;;;;-0.93;73.99;100388.94;124551;1109;103948;-79
2021/03/18 04:19:37;;;;;;;15.20;8.67;;;;;;;-0.91;73.39;100381.28;124608;1106;104557;-78
2021/03/18 04:22:06;;;;;;;12.67;9.40;;;;;;;-0.89;74.12;100392.44;124580;1105;104194;-79
2021/03/18 04:24:35;;;;;;;14.17;9.63;;;;;;;-0.87;73.62;100388.20;124555;1109;104114;-79
2021/03/18 04:27:03;;;;;;;16.67;9.97;;;;;;;-0.81;74.09;100392.55;124547;1109;104168;-79
2021/03/18 04:29:32;;;;;;;14.47;9.50;;;;;;;-0.80;73.58;100387.45;124553;1106;104294;-79
2021/03/18 04:32:01;;;;;;;18.10;10.43;;;;;;;-0.78;73.96;100396.02;124626;1105;104630;-80
2021/03/18 04:34:49;;;;;;;15.87;10.17;;;;;;;-0.76;73.69;100394.33;124594;1105;104194;-79
2021/03/18 04:37:16;;;;;;;15.17;10.10;;;;;;;-0.72;74.17;100391.01;124573;1109;102000;-78
2021/03/18 04:39:43;;;;;;;16.30;9.93;;;;;;;-0.70;73.58;100389.33;124502;1105;104267;-79
2021/03/18 04:42:12;;;;;;;16.00;10.63;;;;;;;-0.67;74.22;100391.94;124596;1106;104287;-79
2021/03/18 04:44:42;;;;;;;16.10;9.17;;;;;;;-0.66;73.61;100388.53;124851;1105;104207;-79
2021/03/18 04:47:10;;;;;;;15.43;10.20;;;;;;;-0.63;73.63;100393.70;124538;1109;104346;-79
2021/03/18 04:49:42;;;;;;;19.20;11.33;;;;;;;-0.61;74.35;100391.16;124514;1109;103161;-78
2021/03/18 04:52:15;;;;;;;16.60;10.60;;;;;;;-0.59;73.96;100386.91;124512;1106;104188;-78
2021/03/18 04:54:45;;;;;;;16.83;10.70;;;;;;;-0.55;74.33;100387.81;124563;1109;104169;-79
2021/03/18 04:57:18;;;;;;;15.60;10.63;;;;;;;-0.53;73.45;100388.73;124548;1107;104111;-79
2021/03/18 04:59:46;;;;;;;19.07;11.00;;;;;;;-0.51;73.88;100394.73;124557;1107;104566;-79
2021/03/18 05:02:15;;;;;;;21.30;11.33;;;;;;;-0.48;74.09;100387.95;124583;1105;104253;-80
2021/03/18 05:04:44;;;;;;;14.83;10.33;;;;;;;-0.46;74.32;100390.53;124500;1105;104357;-79
2021/03/18 05:07:13;;;;;;;19.93;11.07;;;;;;;-0.46;73.68;100393.95;124593;1105;104188;-79
2021/03/18 05:09:42;;;;;;;18.00;10.60;;;;;;;-0.42;73.49;100393.15;124796;1105;104388;-79
2021/03/18 05:12:11;;;;;;;18.77;10.97;;;;;;;-0.41;74.16;100394.87;124645;1105;102529;-79
2021/03/18 05:14:39;;;;;;;17.67;10.50;;;;;;;-0.41;73.90;100394.87;124648;1109;104216;-79
2021/03/18 05:17:07;;;;;;;20.97;11.47;;;;;;;-0.41;73.59;100399.13;124480;1106;104162;-80
2021/03/18 05:19:37;;;;;;;24.03;13.27;;;;;;;-0.40;73.64;100396.59;124659;1109;104166;-80
2021/03/18 05:22:04;;;;;;;19.93;12.53;;;;;;;-0.36;74.20;100403.51;124568;1105;104108;-79
2021/03/18 05:24:32;;;;;;;17.87;11.57;;;;;;;-0.33;73.76;100400.13;124557;1105;104262;-79
2021/03/18 05:26:59;;;;;;;19.97;12.07;;;;;;;-0.32;73.68;100389.89;124520;1108;104198;-79
2021/03/18 05:29:26;;;;;;;18.95;12.55;;;;;;;-0.29;73.61;100391.63;124558;1105;104114;-79
2021/03/18 05:31:53;;;;;;;16.73;11.97;;;;;;;-0.26;74.30;100390.81;124630;1105;104277;-79
2021/03/18 05:34:20;;;;;;;20.20;13.10;;;;;;;-0.23;73.91;100394.27;124645;1105;104319;-79
2021/03/18 05:36:47;;;;;;;19.13;12.77;;;;;;;-0.21;73.85;100387.45;124533;1106;101769;-79
2021/03/18 05:39:14;;;;;;;20.60;12.98;;;;;;;-0.19;73.97;100390.90;124635;1106;104120;-78
2021/03/18 05:41:43;;;;;;;20.30;12.20;;;;;;;-0.16;73.84;100396.09;124547;1106;104176;-78
2021/03/18 05:44:10;;;;;;;18.25;12.50;;;;;;;-0.15;74.01;100397.81;124540;1105;104165;-79
2021/03/18 05:46:39;;;;;;;17.93;11.67;;;;;;;-0.11;74.54;100402.14;124563;1106;102066;-78
2021/03/18 05:49:08;;;;;;;16.77;11.47;;;;;;;-0.06;74.13;100397.92;124555;1109;102468;-79
2021/03/18 05:51:36;;;;;;;18.47;11.53;;;;;;;0.03;73.99;100401.47;124545;1105;103282;-79
2021/03/18 05:54:04;;;;;;;16.47;11.90;;;;;;;0.09;73.45;100398.97;124760;1105;104121;-79
2021/03/18 05:56:33;;;;;;;17.23;11.50;;;;;;;0.17;73.69;100403.34;124634;1105;104172;-79
2021/03/18 05:59:01;;;;;;;20.57;11.40;;;;;;;0.22;74.02;100400.84;124607;1108;104165;-80
2021/03/18 06:01:28;;;;;;;17.50;10.65;;;;;;;0.32;73.47;100407.80;124538;1106;104230;-79
2021/03/18 06:03:57;;;;;;;19.93;12.53;;;;;;;0.46;73.60;100402.83;124548;1106;104644;-80
2021/03/18 06:06:26;;;;;;;16.13;11.07;;;;;;;0.56;73.67;100405.52;124665;1109;104238;-80
2021/03/18 06:08:54;;;;;;;17.20;11.63;;;;;;;0.66;73.20;100403.04;124709;1105;104152;-80
2021/03/18 06:11:21;;;;;;;14.47;10.10;;;;;;;0.77;73.22;100404.02;124570;1109;104222;-80
2021/03/18 06:13:52;;;;;;;16.83;11.13;;;;;;;0.99;73.31;100405.94;124527;1105;104156;-80
2021/03/18 06:16:19;;;;;;;18.97;11.83;;;;;;;1.29;72.98;100399.35;124490;1109;104704;-80
2021/03/18 06:18:47;;;;;;;16.50;11.67;;;;;;;1.67;72.80;100397.91;124617;1108;104108;-79
2021/03/18 06:21:14;;;;;;;14.20;10.07;;;;;;;2.13;71.54;100403.28;124581;1109;104169;-78
2021/03/18 06:23:58;;;;;;;14.03;9.50;;;;;;;2.30;70.86;100405.93;124539;1109;104286;-79
2021/03/18 06:26:35;;;;;;;16.93;9.60;;;;;;;2.37;70.39;100411.13;124558;1105;104139;-79
2021/03/18 06:29:05;;;;;;;13.43;9.50;;;;;;;2.49;70.02;100412.86;124592;1105;104258;-79
2021/03/18 06:31:32;;;;;;;13.57;9.53;;;;;;;2.62;69.92;100413.77;124537;1105;104206;-79
2021/03/18 06:34:00;;;;;;;14.07;9.77;;;;;;;2.71;68.69;100419.81;124808;1105;104541;-79
2021/03/18 06:36:29;;;;;;;14.00;9.33;;;;;;;2.66;68.84;100420.64;124542;1106;104162;-79
2021/03/18 06:39:08;;;;;;;14.17;9.20;;;;;;;2.74;68.82;100418.96;124495;1105;105501;-79
2021/03/18 06:41:41;;;;;;;11.93;9.00;;;;;;;4.82;69.87;100409.95;124534;1106;104120;-79
2021/03/18 06:44:35;;;;;;;12.27;8.47;;;;;;;7.42;65.24;100396.66;124552;1109;102773;-79
2021/03/18 06:47:08;;;;;;;11.60;7.60;;;;;;;9.86;62.21;100391.32;124735;1105;104185;-78
2021/03/18 06:49:36;;;;;;;10.70;7.30;;;;;;;11.84;59.45;100381.75;124533;1106;102286;-78
2021/03/18 06:52:07;;;;;;;8.50;6.60;;;;;;;12.78;56.94;100377.41;124493;1106;104242;-79
2021/03/18 06:54:37;;;;;;;10.63;6.17;;;;;;;14.32;54.47;100366.48;124516;1105;103954;-79
2021/03/18 06:57:05;;;;;;;19.07;13.23;;;;;;;15.75;51.65;100358.70;124629;1105;104149;-78
2021/03/18 06:59:40;;;;;;;10.20;7.30;;;;;;;16.53;49.61;100358.03;124699;1105;103979;-79
2021/03/18 07:02:19;;;;;;;8.13;5.90;;;;;;;17.35;47.49;100349.88;124597;1106;104217;-79
2021/03/18 07:04:49;;;;;;;7.50;6.20;;;;;;;18.55;47.25;100354.88;124525;1105;104127;-81
2021/03/18 07:07:20;;;;;;;5.70;5.07;;;;;;;20.08;44.89;100342.91;124493;1109;104377;-79
2021/03/18 07:09:50;;;;;;;6.63;4.60;;;;;;;20.52;42.28;100341.61;124555;1105;104108;-79
2021/03/18 07:12:26;;;;;;;5.17;4.50;;;;;;;20.93;39.28;100332.44;124485;1106;104179;-79
2021/03/18 07:14:54;;;;;;;4.70;3.67;;;;;;;19.47;37.26;100336.52;124487;1105;104267;-78
2021/03/18 07:17:38;;;;;;;5.80;3.83;;;;;;;20.01;38.90;100338.16;124440;1108;105361;-79
2021/03/18 07:20:19;;;;;;;4.20;3.80;;;;;;;18.68;38.07;100337.34;124495;1109;104197;-79
2021/03/18 07:22:49;;;;;;;4.80;3.33;;;;;;;16.91;36.65;100342.75;124552;1105;104197;-79
2021/03/18 07:25:18;;;;;;;5.00;3.70;;;;;;;15.18;37.75;100351.95;124537;1105;104030;-79
2021/03/18 07:27:50;;;;;;;4.40;3.97;;;;;;;13.66;38.62;100357.23;124547;1109;104143;-80
2021/03/18 07:30:37;;;;;;;5.20;4.20;;;;;;;12.29;39.56;100366.19;124504;1108;104143;-79
2021/03/18 07:33:05;;;;;;;5.17;4.20;;;;;;;11.03;41.45;100369.65;124566;1105;104303;-80
2021/03/18 07:35:34;;;;;;;7.23;4.70;;;;;;;9.96;41.88;100377.16;124687;1108;104236;-79
2021/03/18 07:38:01;;;;;;;5.00;4.50;;;;;;;9.03;43.03;100374.35;124679;1106;104258;-80
2021/03/18 07:40:30;;;;;;;5.13;4.20;;;;;;;8.22;43.91;100376.09;124676;1105;104105;-79
2021/03/18 07:42:59;;;;;;;7.87;4.83;;;;;;;7.49;45.70;100373.16;124632;1106;104640;-79
2021/03/18 07:45:28;;;;;;;8.20;5.13;;;;;;;6.99;45.69;100376.58;124543;1105;104300;-79
2021/03/18 07:47:57;;;;;;;8.27;5.37;;;;;;;6.63;46.09;100389.19;124629;1106;104201;-79
2021/03/18 07:50:32;;;;;;;9.63;6.77;;;;;;;6.33;47.93;100382.70;124550;1108;101709;-80
2021/03/18 07:53:00;;;;;;;9.30;5.87;;;;;;;6.09;47.80;100382.13;124552;1106;104160;-80
2021/03/18 07:55:32;;;;;;;8.37;6.77;;;;;;;5.86;47.96;100388.39;124558;1106;103102;-80
2021/03/18 07:57:59;;;;;;;7.53;4.83;;;;;;;5.60;48.65;100374.88;124507;1109;104168;-79
2021/03/18 08:00:26;;;;;;;4.23;3.50;;;;;;;5.34;48.09;100375.95;124557;1106;104188;-79
2021/03/18 08:03:19;;;;;;;5.67;4.00;;;;;;;5.13;48.27;100373.55;124542;1106;104173;-81
2021/03/18 08:05:50;;;;;;;5.27;3.60;;;;;;;4.97;48.58;100375.40;124708;1106;102163;-80
2021/03/18 08:08:36;;;;;;;5.23;3.37;;;;;;;4.75;48.88;100376.42;124645;1109;104195;-79
2021/03/18 08:11:20;;;;;;;5.30;3.53;;;;;;;4.49;49.28;100379.17;124590;1106;104118;-79
2021/03/18 08:13:47;;;;;;;5.97;3.57;;;;;;;4.23;49.13;100376.69;124612;1105;104174;-79
2021/03/18 08:16:26;;;;;;;7.07;4.93;;;;;;;4.00;49.72;100374.20;124587;1105;104168;-80
2021/03/18 08:18:54;;;;;;;10.37;7.03;;;;;;;3.85;49.86;100371.67;124559;1105;103152;-79
2021/03/18 08:21:34;;;;;;;6.70;4.17;;;;;;;3.77;50.85;100375.97;124595;1105;102672;-78
2021/03/18 08:24:04;;;;;;;5.13;3.70;;;;;;;3.72;50.80;100375.13;124506;1109;104287;-78
2021/03/18 08:26:47;;;;;;;6.60;3.90;;;;;;;3.77;51.11;100383.72;124552;1106;104217;-79
2021/03/18 08:29:26;;;;;;;3.43;2.87;;;;;;;3.80;50.62;100378.58;124594;1105;104145;-78
2021/03/18 08:32:08;;;;;;;5.43;3.43;;;;;;;3.73;50.81;100374.27;124525;1109;104171;-79
2021/03/18 08:34:45;;;;;;;4.20;3.00;;;;;;;3.56;50.02;100382.04;124775;1105;103113;-78
2021/03/18 08:37:14;;;;;;;4.47;2.98;;;;;;;3.36;50.57;100376.91;124479;1105;104389;-79
2021/03/18 08:39:51;;;;;;;4.53;3.23;;;;;;;3.28;50.77;100378.64;124557;1106;104200;-79
2021/03/18 08:42:30;;;;;;;;;;;;;;;3.20;51.11;100372.62;124568;1106;104140;-78
2021/03/18 08:45:10;;;;;;;7.00;3.77;;;;;;;3.11;51.63;100372.64;124571;1105;102929;-79
2021/03/18 08:47:46;;;;;;;6.30;4.27;;;;;;;3.09;52.09;100375.22;124484;1109;104275;-79
2021/03/18 08:50:25;;;;;;;9.47;4.47;;;;;;;3.11;52.30;100376.07;124537;1105;104121;-79
2021/03/18 08:52:57;;;;;;;5.10;3.93;;;;;;;3.12;52.60;100379.50;124551;1105;104258;-80
2021/03/18 08:55:45;;;;;;;7.70;4.10;;;;;;;3.11;52.74;100375.21;124581;1106;104226;-80
2021/03/18 08:58:14;;;;;;;5.57;3.50;;;;;;;3.11;53.00;100372.64;124561;1106;103666;-79
2021/03/18 09:00:45;;;;;;;5.80;3.77;;;;;;;3.13;53.30;100376.06;124536;1109;104137;-79
2021/03/18 09:03:21;;;;;;;14.17;8.80;;;;;;;3.14;52.85;100372.63;124493;1105;104759;-79
2021/03/18 09:05:54;;;;;;;6.53;4.07;;;;;;;3.22;53.19;100373.47;124555;1106;104248;-79
2021/03/18 09:08:25;;;;;;;3.90;3.10;;;;;;;3.31;52.76;100371.77;124564;1108;104287;-80
2021/03/18 09:10:54;;;;;;;4.03;3.20;;;;;;;3.32;52.84;100373.48;124559;1105;104197;-79
2021/03/18 09:13:23;;;;;;;6.20;3.40;;;;;;;3.34;52.53;100376.05;124467;1106;104309;-79
2021/03/18 09:15:53;;;;;;;3.77;3.07;;;;;;;3.33;52.50;100374.34;124490;1108;103992;-78
2021/03/18 09:18:22;;;;;;;6.07;3.23;;;;;;;3.37;53.27;100368.31;124650;1106;104210;-78
2021/03/18 09:20:59;;;;;;;4.60;2.83;;;;;;;3.44;52.53;100362.31;124536;1105;104262;-79
2021/03/18 09:23:29;;;;;;;5.50;3.42;;;;;;;3.51;52.69;100357.98;124763;1105;104274;-79
2021/03/18 09:25:59;;;;;;;4.47;2.77;;;;;;;3.53;52.32;100364.86;124583;1106;104207;-80
2021/03/18 09:28:42;;;;;;;5.50;2.70;;;;;;;3.58;51.88;100363.12;124584;1106;104300;-79
2021/03/18 09:31:10;;;;;;;4.53;2.50;;;;;;;3.49;52.07;100362.30;124523;1105;104236;-79
2021/03/18 09:33:40;;;;;;;3.00;2.07;;;;;;;3.34;51.48;100365.74;124564;1105;104557;-80
2021/03/18 09:36:13;;;;;;;3.73;2.70;;;;;;;3.25;51.40;100358.89;124589;1106;104181;-79
2021/03/18 09:39:10;;;;;;;5.00;2.93;;;;;;;3.13;51.65;100363.18;124786;1105;104643;-80
2021/03/18 09:41:43;;;;;;;4.13;2.27;;;;;;;3.07;51.59;100350.31;124509;1106;104274;-79
2021/03/18 09:44:21;;;;;;;4.20;2.70;;;;;;;3.04;51.64;100354.58;124543;1105;104127;-79
2021/03/18 09:46:54;;;;;;;3.97;2.47;;;;;;;3.16;51.95;100363.17;124667;1106;104139;-80
2021/03/18 09:49:38;;;;;;;3.33;2.30;;;;;;;3.24;51.63;100356.32;124624;1109;104198;-81
2021/03/18 09:52:05;;;;;;;3.20;2.10;;;;;;;3.36;51.86;100360.58;124712;1105;104102;-81
2021/03/18 09:54:33;;;;;;;4.25;2.90;;;;;;;3.45;51.06;100352.85;125001;1105;104389;-80
2021/03/18 09:57:03;;;;;;;3.60;2.40;;;;;;;3.52;50.80;100350.25;124792;1109;102927;-79
2021/03/18 09:59:30;;;;;;;7.57;4.93;;;;;;;3.51;50.94;100345.09;124625;1106;104112;-79
2021/03/18 10:01:57;;;;;;;3.90;2.47;;;;;;;3.45;49.95;100345.97;124671;1106;104351;-79
2021/03/18 10:04:27;;;;;;;3.67;2.53;;;;;;;3.37;50.52;100350.27;124550;1105;104450;-79
2021/03/18 10:06:58;;;;;;;5.00;2.53;;;;;;;3.30;50.78;100351.15;124515;1105;104113;-79
2021/03/18 10:09:33;;;;;;;5.87;2.40;;;;;;;3.26;50.93;100352.87;124563;1105;104163;-79
2021/03/18 10:12:08;;;;;;;2.80;2.40;;;;;;;3.20;50.96;100349.42;124503;1109;104226;-79
2021/03/18 10:14:36;;;;;;;3.60;2.40;;;;;;;3.15;51.64;100344.28;124508;1109;107650;-78
2021/03/18 10:17:15;;;;;;;4.53;3.20;;;;;;;3.10;51.66;100355.45;124556;1106;104219;-78
2021/03/18 10:19:53;;;;;;;4.03;3.00;;;;;;;3.16;52.13;100355.45;124506;1105;104220;-79
2021/03/18 10:22:22;;;;;;;4.13;2.63;;;;;;;3.32;51.95;100346.84;124545;1106;104162;-79
2021/03/18 10:25:03;;;;;;;4.73;2.87;;;;;;;3.56;51.91;100343.36;124571;1105;104235;-78
2021/03/18 10:27:42;;;;;;;4.63;2.87;;;;;;;3.72;51.46;100332.14;124539;1109;104120;-79
2021/03/18 10:30:22;;;;;;;4.27;2.40;;;;;;;3.84;51.09;100337.27;124539;1109;104223;-78
2021/03/18 10:33:20;;;;;;;5.37;2.93;;;;;;;3.92;51.29;100334.66;124544;1109;104297;-80
2021/03/18 10:35:53;;;;;;;4.50;2.73;;;;;;;3.89;51.81;100335.52;124580;1109;104325;-80
2021/03/18 10:38:32;;;;;;;3.67;2.70;;;;;;;3.83;52.11;100335.56;124586;1106;104267;-79
2021/03/18 10:41:05;;;;;;;4.90;2.97;;;;;;;3.79;51.81;100323.54;124612;1105;105470;-80
2021/03/18 10:43:37;;;;;;;3.33;2.40;;;;;;;3.74;51.91;100334.72;124597;1105;104287;-79
2021/03/18 10:46:07;;;;;;;2.90;2.40;;;;;;;3.72;52.05;100328.70;124825;1106;104159;-79
2021/03/18 10:48:36;;;;;;;3.30;2.57;;;;;;;3.72;51.64;100323.55;124544;1109;104187;-80
2021/03/18 10:51:15;;;;;;;4.10;2.60;;;;;;;3.70;51.56;100331.30;124558;1109;104147;-79
2021/03/18 10:53:45;;;;;;;2.80;2.30;;;;;;;3.66;51.25;100327.02;124551;1105;104259;-80
2021/03/18 10:56:32;;;;;;;3.17;2.70;;;;;;;3.63;51.36;100322.72;124593;1109;104270;-78
2021/03/18 10:59:12;;;;;;;;;;;;;;;3.61;50.88;100329.61;124517;1106;104246;-79
2021/03/18 11:01:39;;;;;;;3.37;2.30;;;;;;;3.61;51.13;100319.30;124507;1106;104117;-79
2021/03/18 11:04:08;;;;;;;2.90;2.33;;;;;;;3.68;50.88;100325.28;124571;1106;104219;-80
2021/03/18 11:06:48;;;;;;;4.10;2.30;;;;;;;3.78;51.18;100326.13;124564;1109;104168;-78
2021/03/18 11:09:16;;;;;;;2.53;2.27;;;;;;;3.87;50.91;100326.08;124574;1105;103022;-79
2021/03/18 11:11:55;;;;;;;4.20;2.77;;;;;;;3.96;50.64;100322.63;124616;1105;104281;-80
2021/03/18 11:14:22;;;;;;;4.87;2.90;;;;;;;4.02;50.99;100320.01;124556;1105;104864;-80
2021/03/18 11:17:02;;;;;;;3.67;2.70;;;;;;;4.03;50.44;100314.84;124536;1106;104117;-79
2021/03/18 11:19:29;;;;;;;4.87;3.20;;;;;;;4.04;50.33;100318.27;124579;1105;104177;-79
2021/03/18 11:22:06;;;;;;;4.10;2.97;;;;;;;4.02;50.54;100310.55;124533;1105;104243;-80
2021/03/18 11:24:33;;;;;;;;;;;;;;;4.10;50.66;100302.75;124566;1105;104621;-78
2021/03/18 11:27:04;;;;;;;5.67;3.30;;;;;;;4.20;50.71;100312.17;124537;1105;104288;-79
2021/03/18 11:29:36;;;;;;;4.85;3.30;;;;;;;4.16;50.98;100303.59;124506;1108;104248;-78